Time;durP1;ratioP1;P1;durP2;ratioP2;P2;SDS_P1;SDS_P2;PMS_P1;PMS_P2;Temp;Humidity;BMP_temperature;BMP_pressure;BME280_temperature;BME280_humidity;BME280_pressure;Samples;Min_cycle;Max_cycle;Signal;HPM_P1;HPM_P2
2023/11/24 00:03:58;;;;;;;2.17;2.00;;;9.60;99.90;;;;;;10362140;28;20276;-78
2023/11/24 00:09:02;;;;;;;2.60;2.40;;;9.50;99.90;;;;;;10340807;28;20668;-78
2023/11/24 00:14:05;;;;;;;2.30;2.20;;;9.50;99.90;;;;;;10340074;28;20288;-79
2023/11/24 00:19:10;;;;;;;2.40;2.30;;;9.40;99.90;;;;;;10364728;28;20191;-77
2023/11/24 00:24:14;;;;;;;2.77;2.43;;;9.40;99.90;;;;;;10342726;28;20214;-78
2023/11/24 00:29:16;;;;;;;2.13;2.03;;;9.40;99.90;;;;;;10368721;28;20688;-78
2023/11/24 00:34:19;;;;;;;2.00;1.90;;;9.40;99.90;;;;;;10357535;28;20269;-78
2023/11/24 00:39:23;;;;;;;2.30;2.20;;;9.40;99.90;;;;;;10341794;28;20203;-78
2023/11/24 00:44:25;;;;;;;1.90;1.80;;;9.40;99.90;;;;;;10343135;28;20213;-78
2023/11/24 00:49:27;;;;;;;2.20;2.10;;;9.40;99.90;;;;;;10345234;28;20278;-79
2023/11/24 00:54:34;;;;;;;2.70;2.20;;;9.40;99.90;;;;;;10349068;28;20223;-78
2023/11/24 00:59:36;;;;;;;2.00;1.90;;;9.50;99.90;;;;;;10319421;28;20223;-78
2023/11/24 01:04:38;;;;;;;2.00;1.90;;;9.60;99.90;;;;;;10344238;28;20209;-78
2023/11/24 01:09:42;;;;;;;1.97;1.87;;;9.60;99.90;;;;;;10331160;28;20227;-78
2023/11/24 01:14:45;;;;;;;2.17;2.07;;;9.60;99.90;;;;;;10353907;28;20227;-78
2023/11/24 01:19:48;;;;;;;2.10;2.00;;;9.70;99.90;;;;;;10344651;28;20234;-78
2023/11/24 01:24:51;;;;;;;2.13;2.03;;;9.60;99.90;;;;;;10366714;28;20258;-78
2023/11/24 01:29:54;;;;;;;2.23;2.10;;;9.60;99.90;;;;;;10349913;28;20234;-75
2023/11/24 01:34:56;;;;;;;2.30;2.20;;;9.70;99.90;;;;;;10350387;28;20230;-78
2023/11/24 01:40:00;;;;;;;2.23;2.13;;;9.70;99.90;;;;;;10367239;28;20234;-78
2023/11/24 01:45:07;;;;;;;2.30;2.20;;;9.70;99.90;;;;;;10356140;28;20206;-78
2023/11/24 01:50:10;;;;;;;2.30;2.20;;;9.70;99.90;;;;;;10348145;28;20226;-78
2023/11/24 01:55:16;;;;;;;2.73;2.53;;;9.70;99.90;;;;;;10343877;28;20669;-78
2023/11/24 02:00:19;;;;;;;2.30;2.20;;;9.60;99.90;;;;;;10328857;28;20231;-79
2023/11/24 02:05:23;;;;;;;2.50;2.40;;;9.60;99.90;;;;;;10331595;28;20210;-78
2023/11/24 02:10:27;;;;;;;2.77;2.47;;;9.50;99.90;;;;;;10336335;28;20285;-78
2023/11/24 02:15:31;;;;;;;2.80;2.70;;;9.40;99.90;;;;;;10337762;28;20207;-78
2023/11/24 02:20:33;;;;;;;2.50;2.40;;;9.30;99.90;;;;;;10333121;28;20289;-78
2023/11/24 02:25:37;;;;;;;2.90;2.80;;;9.40;99.90;;;;;;10320189;28;20207;-78
2023/11/24 02:30:39;;;;;;;3.00;2.90;;;9.40;99.90;;;;;;10341982;28;20227;-78
2023/11/24 02:35:42;;;;;;;3.30;3.10;;;9.40;99.90;;;;;;10338999;28;20254;-79
2023/11/24 02:40:47;;;;;;;3.70;3.50;;;9.30;99.90;;;;;;10342419;28;20230;-77
2023/11/24 02:45:49;;;;;;;3.40;3.30;;;9.30;99.90;;;;;;10358089;28;20198;-78
2023/11/24 02:50:52;;;;;;;3.50;3.30;;;9.30;99.90;;;;;;10349125;28;20242;-78
2023/11/24 02:55:56;;;;;;;3.43;3.33;;;9.20;99.90;;;;;;10346836;28;20271;-79
2023/11/24 03:00:58;;;;;;;4.20;4.00;;;9.20;99.90;;;;;;10337020;28;20221;-78
2023/11/24 03:06:03;;;;;;;4.07;3.97;;;9.20;99.90;;;;;;10328675;28;20213;-78
2023/11/24 03:11:08;;;;;;;4.07;3.97;;;9.10;99.90;;;;;;10334938;28;20785;-78
2023/11/24 03:16:10;;;;;;;4.50;4.30;;;9.10;99.90;;;;;;10362265;28;20191;-78
2023/11/24 03:21:13;;;;;;;4.53;4.43;;;9.10;99.90;;;;;;10337297;28;20241;-78
2023/11/24 03:26:16;;;;;;;4.20;4.10;;;9.00;99.90;;;;;;10336553;28;20204;-78
2023/11/24 03:31:19;;;;;;;4.87;4.77;;;9.00;99.90;;;;;;10342485;28;20233;-78
2023/11/24 03:36:21;;;;;;;4.83;4.67;;;9.00;99.90;;;;;;10329428;28;20199;-78
2023/11/24 03:41:25;;;;;;;5.40;5.20;;;9.00;99.90;;;;;;10343304;28;20278;-78
2023/11/24 03:46:28;;;;;;;6.07;5.87;;;8.90;99.90;;;;;;10347495;28;20214;-78
2023/11/24 03:51:30;;;;;;;5.87;5.67;;;8.90;99.90;;;;;;10348434;28;20231;-78
2023/11/24 03:56:34;;;;;;;5.30;5.10;;;8.80;99.90;;;;;;10351238;28;20202;-78
2023/11/24 04:01:36;;;;;;;5.00;4.90;;;8.80;99.90;;;;;;10326251;28;20613;-78
2023/11/24 04:06:38;;;;;;;5.20;5.10;;;8.80;99.90;;;;;;10335924;28;20208;-78
2023/11/24 04:11:42;;;;;;;4.80;4.60;;;8.80;99.90;;;;;;10323360;28;20223;-78
2023/11/24 04:16:45;;;;;;;4.20;4.10;;;8.90;99.90;;;;;;10342803;28;20204;-77
2023/11/24 04:21:47;;;;;;;3.90;3.80;;;8.90;99.90;;;;;;10329305;28;20222;-79
2023/11/24 04:26:51;;;;;;;3.70;3.60;;;8.90;99.90;;;;;;10317553;28;20196;-78
2023/11/24 04:31:54;;;;;;;3.70;3.60;;;9.00;99.90;;;;;;10341545;28;20310;-77
2023/11/24 04:36:57;;;;;;;4.00;3.90;;;9.00;99.90;;;;;;10338711;28;20214;-77
2023/11/24 04:42:00;;;;;;;4.07;3.97;;;9.00;99.90;;;;;;10337015;28;20265;-77
2023/11/24 04:47:03;;;;;;;3.70;3.60;;;9.00;99.90;;;;;;10337184;28;20555;-77
2023/11/24 04:52:06;;;;;;;3.40;3.30;;;9.10;99.90;;;;;;10309589;28;20641;-77
2023/11/24 04:57:10;;;;;;;3.30;3.20;;;9.10;99.90;;;;;;10342479;28;20249;-76
2023/11/24 05:02:12;;;;;;;6.80;6.40;;;9.20;99.90;;;;;;10339695;28;20614;-77
2023/11/24 05:07:18;;;;;;;7.43;7.03;;;9.10;99.90;;;;;;10336964;28;20573;-77
2023/11/24 05:12:21;;;;;;;8.50;7.87;;;9.00;99.90;;;;;;10316320;28;20221;-77
2023/11/24 05:17:24;;;;;;;9.07;8.47;;;8.80;99.90;;;;;;10345753;28;20842;-78
2023/11/24 05:22:26;;;;;;;7.37;6.80;;;8.70;99.90;;;;;;10340640;28;20269;-78
2023/11/24 05:27:30;;;;;;;9.30;8.50;;;8.60;99.90;;;;;;10329676;28;20204;-78
2023/11/24 05:32:32;;;;;;;6.50;6.00;;;8.50;99.90;;;;;;10344698;28;20226;-78
2023/11/24 05:37:34;;;;;;;8.70;8.23;;;8.50;99.90;;;;;;10324975;28;20215;-78
2023/11/24 05:42:38;;;;;;;7.97;4.67;;;8.50;99.90;;;;;;10321585;28;20631;-79
2023/11/24 05:47:41;;;;;;;8.50;6.87;;;8.50;99.90;;;;;;10305814;28;20200;-78
2023/11/24 05:52:43;;;;;;;5.10;4.63;;;8.50;99.90;;;;;;10310377;28;20232;-77
2023/11/24 05:57:47;;;;;;;8.87;7.17;;;8.40;99.90;;;;;;10306691;28;20199;-80
2023/11/24 06:02:49;;;;;;;6.80;5.17;;;8.40;99.90;;;;;;10327159;28;20706;-78
2023/11/24 06:07:51;;;;;;;6.63;5.87;;;8.40;99.90;;;;;;10293110;28;20626;-78
2023/11/24 06:12:55;;;;;;;10.93;6.47;;;8.40;99.90;;;;;;10307133;28;20699;-78
2023/11/24 06:17:57;;;;;;;8.90;6.40;;;8.40;99.90;;;;;;10339979;28;20574;-81
2023/11/24 06:22:59;;;;;;;7.33;6.13;;;8.40;99.90;;;;;;10322886;28;20235;-81
2023/11/24 06:28:03;;;;;;;7.37;5.50;;;8.30;99.90;;;;;;10308553;28;20308;-81
2023/11/24 06:33:06;;;;;;;7.13;4.57;;;8.30;99.90;;;;;;10335266;28;20227;-80
2023/11/24 06:38:08;;;;;;;5.70;5.20;;;8.30;99.90;;;;;;10301931;28;20258;-78
2023/11/24 06:43:12;;;;;;;6.93;6.30;;;8.30;99.90;;;;;;10318262;28;20223;-78
2023/11/24 06:48:14;;;;;;;7.90;4.90;;;8.30;99.90;;;;;;10312920;28;20211;-79
2023/11/24 06:53:17;;;;;;;10.33;6.43;;;8.30;99.90;;;;;;10306553;28;20223;-78
2023/11/24 06:58:20;;;;;;;6.07;5.40;;;8.30;99.90;;;;;;10315398;28;20199;-79
2023/11/24 07:03:23;;;;;;;8.53;4.80;;;8.30;99.90;;;;;;10331296;28;20207;-79
2023/11/24 07:08:25;;;;;;;10.17;5.67;;;8.30;99.90;;;;;;10318748;28;20370;-79
2023/11/24 07:13:29;;;;;;;6.77;6.17;;;8.30;99.90;;;;;;10302376;28;20232;-78
2023/11/24 07:18:32;;;;;;;11.77;6.97;;;8.30;99.90;;;;;;10329214;28;20250;-79
2023/11/24 07:23:37;;;;;;;6.93;6.23;;;8.30;99.90;;;;;;10334895;28;20207;-79
2023/11/24 07:28:44;;;;;;;9.00;5.70;;;8.40;99.90;;;;;;10300064;28;20195;-78
2023/11/24 07:33:48;;;;;;;7.57;6.87;;;8.40;99.90;;;;;;10313158;28;20216;-78
2023/11/24 07:38:51;;;;;;;7.70;6.20;;;8.50;99.90;;;;;;10312088;28;20208;-78
2023/11/24 07:43:54;;;;;;;6.30;5.67;;;8.50;99.90;;;;;;10312493;28;20226;-78
2023/11/24 07:48:57;;;;;;;6.63;5.10;;;8.60;99.90;;;;;;10327105;28;20232;-79
2023/11/24 07:53:59;;;;;;;6.80;6.00;;;8.60;99.90;;;;;;10314812;28;20274;-79
2023/11/24 07:59:03;;;;;;;10.47;5.80;;;8.70;99.90;;;;;;10300519;28;20204;-79
2023/11/24 08:04:05;;;;;;;6.97;6.40;;;8.70;99.90;;;;;;10311375;28;20334;-78
2023/11/24 08:09:08;;;;;;;6.20;4.33;;;8.80;99.90;;;;;;10312082;28;20473;-78
2023/11/24 08:14:12;;;;;;;5.97;5.67;;;8.80;99.90;;;;;;10309251;28;20231;-79
2023/11/24 08:19:15;;;;;;;6.03;5.63;;;8.80;99.90;;;;;;10312291;28;20388;-78
2023/11/24 08:24:18;;;;;;;6.27;5.10;;;8.90;99.90;;;;;;10333196;28;20195;-78
2023/11/24 08:29:22;;;;;;;5.53;4.43;;;8.90;99.90;;;;;;10331761;28;20234;-78
2023/11/24 08:34:24;;;;;;;5.57;4.03;;;8.90;99.90;;;;;;10329989;28;20227;-78
2023/11/24 08:39:27;;;;;;;7.50;5.87;;;8.90;99.90;;;;;;10330915;28;20254;-79
2023/11/24 08:44:30;;;;;;;13.67;5.60;;;8.90;99.90;;;;;;10333420;28;20685;-78
2023/11/24 08:49:33;;;;;;;4.80;3.60;;;9.00;99.90;;;;;;10328285;28;20230;-78
2023/11/24 08:54:36;;;;;;;5.57;5.07;;;9.00;99.90;;;;;;10289838;28;20220;-78
2023/11/24 08:59:40;;;;;;;12.47;4.87;;;9.10;99.90;;;;;;10328737;28;20219;-78
2023/11/24 09:04:44;;;;;;;6.03;4.60;;;9.20;99.90;;;;;;10320924;28;20227;-78
2023/11/24 09:09:47;;;;;;;7.03;5.20;;;9.30;99.90;;;;;;10317300;28;20231;-78
2023/11/24 09:14:51;;;;;;;6.20;5.00;;;9.40;99.90;;;;;;10338269;28;20751;-79
2023/11/24 09:19:54;;;;;;;9.20;4.93;;;9.40;99.90;;;;;;10310065;28;20227;-79
2023/11/24 09:24:56;;;;;;;8.40;6.20;;;9.40;99.90;;;;;;10337220;28;20195;-79
2023/11/24 09:30:01;;;;;;;10.60;4.50;;;9.40;99.90;;;;;;10326396;28;20285;-78
2023/11/24 09:35:04;;;;;;;8.13;5.17;;;9.40;99.90;;;;;;10335949;28;20586;-79
2023/11/24 09:40:13;;;;;;;6.73;4.53;;;9.40;99.90;;;;;;10338723;28;20223;-78
2023/11/24 09:45:20;;;;;;;9.57;5.63;;;9.50;99.90;;;;;;10306493;28;20200;-78
2023/11/24 09:50:24;;;;;;;7.87;5.53;;;9.50;99.90;;;;;;10315413;28;20231;-79
2023/11/24 09:55:28;;;;;;;9.83;6.47;;;9.50;99.90;;;;;;10330168;28;20353;-79
2023/11/24 10:00:33;;;;;;;8.07;5.50;;;9.60;99.90;;;;;;10332915;28;20565;-79
2023/11/24 10:05:35;;;;;;;7.97;4.53;;;9.60;99.90;;;;;;10314316;28;20264;-79
2023/11/24 10:10:38;;;;;;;9.13;4.10;;;9.50;99.90;;;;;;10308754;28;20219;-78
2023/11/24 10:15:42;;;;;;;17.17;4.97;;;9.50;99.90;;;;;;10328781;28;20215;-78
2023/11/24 10:20:44;;;;;;;6.30;3.83;;;9.50;99.90;;;;;;10342048;28;20230;-79
2023/11/24 10:25:48;;;;;;;7.03;4.00;;;9.50;99.90;;;;;;10307287;28;20204;-78
2023/11/24 10:30:53;;;;;;;6.90;4.40;;;9.40;99.90;;;;;;10289932;28;20926;-79
2023/11/24 10:35:56;;;;;;;6.43;3.63;;;9.40;99.90;;;;;;10327406;28;20238;-78
2023/11/24 10:41:00;;;;;;;7.70;4.50;;;9.40;99.90;;;;;;10313726;28;20228;-78
2023/11/24 10:46:08;;;;;;;9.90;5.00;;;9.50;99.90;;;;;;10301967;28;20188;-78
2023/11/24 10:51:21;;;;;;;9.00;4.90;;;9.60;99.90;;;;;;10340951;28;20571;-79
2023/11/24 10:56:24;;;;;;;5.13;3.83;;;9.60;99.90;;;;;;10334833;28;20290;-77
2023/11/24 11:01:28;;;;;;;4.67;4.17;;;9.80;99.90;;;;;;10322476;28;20219;-78
2023/11/24 11:06:41;;;;;;;13.00;4.33;;;9.90;99.90;;;;;;10316373;28;20200;-79
2023/11/24 11:12:19;;;;;;;8.00;4.40;;;9.90;99.90;;;;;;10325044;28;20219;-78
2023/11/24 11:17:25;;;;;;;5.10;3.43;;;10.00;99.90;;;;;;10324723;28;20214;-78
2023/11/24 11:22:34;;;;;;;6.20;3.43;;;10.00;99.90;;;;;;10317624;28;20230;-77
2023/11/24 11:27:36;;;;;;;5.57;4.30;;;10.10;99.90;;;;;;10319807;28;20192;-78
2023/11/24 11:32:40;;;;;;;7.83;4.00;;;10.20;99.90;;;;;;10312719;28;20223;-78
2023/11/24 11:37:44;;;;;;;4.53;2.87;;;10.20;99.90;;;;;;10297909;28;20222;-78
2023/11/24 11:42:58;;;;;;;5.53;3.20;;;10.20;99.90;;;;;;10325755;28;20599;-78
2023/11/24 11:48:03;;;;;;;8.10;2.83;;;10.20;99.90;;;;;;10330031;28;20206;-79
2023/11/24 11:53:06;;;;;;;6.37;3.97;;;10.10;99.90;;;;;;10314647;28;20285;-79
2023/11/24 11:58:12;;;;;;;9.77;4.40;;;10.10;99.90;;;;;;10346811;28;20202;-78
2023/11/24 12:03:19;;;;;;;5.87;3.83;;;10.00;99.90;;;;;;10330038;28;20223;-79
2023/11/24 12:08:23;;;;;;;7.50;3.40;;;9.90;99.90;;;;;;10309078;28;20199;-78
2023/11/24 12:13:25;;;;;;;7.53;3.17;;;9.80;99.90;;;;;;10320179;28;20220;-78
2023/11/24 12:18:29;;;;;;;8.50;3.80;;;9.70;99.90;;;;;;10346865;28;20210;-79
2023/11/24 12:23:32;;;;;;;11.60;4.13;;;9.70;99.90;;;;;;10309574;28;20220;-78
2023/11/24 12:28:34;;;;;;;11.87;3.67;;;9.60;99.90;;;;;;10322282;28;20207;-79
2023/11/24 12:33:41;;;;;;;4.73;3.53;;;9.40;99.90;;;;;;10318675;28;20230;-79
2023/11/24 12:38:43;;;;;;;6.63;3.53;;;9.30;99.90;;;;;;10302523;28;20203;-78
2023/11/24 12:43:50;;;;;;;6.40;3.00;;;9.10;99.90;;;;;;10313250;28;20282;-79
2023/11/24 12:49:04;;;;;;;4.47;2.60;;;8.90;99.90;;;;;;10329700;28;20672;-78
2023/11/24 12:54:07;;;;;;;3.00;2.63;;;8.70;99.90;;;;;;10313095;28;20286;-79
2023/11/24 12:59:10;;;;;;;3.67;2.70;;;8.60;99.90;;;;;;10316914;28;20239;-79
2023/11/24 13:04:14;;;;;;;4.33;3.57;;;8.50;99.90;;;;;;10322454;28;20278;-79
2023/11/24 13:09:16;;;;;;;7.33;3.97;;;8.50;99.90;;;;;;10319940;28;20200;-78
2023/11/24 13:14:22;;;;;;;5.17;3.93;;;8.50;99.90;;;;;;10307892;28;20215;-78
2023/11/24 13:19:26;;;;;;;5.63;3.20;;;8.40;99.90;;;;;;10310661;28;20573;-78
2023/11/24 13:24:29;;;;;;;4.27;4.00;;;8.20;99.90;;;;;;10326091;28;20204;-78
2023/11/24 13:29:34;;;;;;;3.40;3.00;;;7.90;99.90;;;;;;10329661;28;20203;-78
2023/11/24 13:34:38;;;;;;;6.77;5.07;;;7.60;99.90;;;;;;10312085;28;20273;-78
2023/11/24 13:39:42;;;;;;;6.13;5.00;;;7.40;99.90;;;;;;10330804;28;20262;-78
2023/11/24 13:44:45;;;;;;;6.00;4.87;;;7.30;99.90;;;;;;10343429;23;20231;-75
2023/11/24 13:49:49;;;;;;;9.80;4.63;;;7.20;99.90;;;;;;10330403;28;20211;-76
2023/11/24 13:54:51;;;;;;;9.23;5.40;;;7.10;99.90;;;;;;10316439;28;20776;-75
2023/11/24 13:59:54;;;;;;;6.67;5.87;;;7.10;99.90;;;;;;10315148;28;20239;-76
2023/11/24 14:04:57;;;;;;;5.80;5.30;;;7.20;99.90;;;;;;10296033;28;20207;-76
2023/11/24 14:10:00;;;;;;;7.53;6.20;;;7.20;99.90;;;;;;10305723;28;20199;-75
2023/11/24 14:15:04;;;;;;;7.20;5.97;;;7.30;99.90;;;;;;10319393;28;20231;-75
2023/11/24 14:20:10;;;;;;;6.17;5.10;;;7.40;99.90;;;;;;10314662;28;20606;-75
2023/11/24 14:25:12;;;;;;;9.57;6.33;;;7.40;99.90;;;;;;10319835;28;20222;-76
2023/11/24 14:30:14;;;;;;;10.90;5.47;;;7.60;99.90;;;;;;10320096;28;20588;-77
2023/11/24 14:35:20;;;;;;;7.87;5.20;;;7.60;99.90;;;;;;10320853;28;20229;-76
2023/11/24 14:40:22;;;;;;;6.63;5.87;;;7.60;99.90;;;;;;10311658;28;20257;-76
2023/11/24 14:45:25;;;;;;;9.27;5.30;;;7.60;99.90;;;;;;10320131;28;20662;-76
2023/11/24 14:50:31;;;;;;;7.23;5.40;;;7.60;99.90;;;;;;10315313;28;20206;-76
2023/11/24 14:55:34;;;;;;;5.47;4.70;;;7.70;99.90;;;;;;10313797;28;20640;-76
2023/11/24 15:00:38;;;;;;;8.13;4.70;;;7.70;99.90;;;;;;10317060;28;20215;-75
2023/11/24 15:05:49;;;;;;;7.77;4.40;;;7.80;99.90;;;;;;10321931;28;20572;-76
2023/11/24 15:10:52;;;;;;;6.13;5.17;;;7.70;99.90;;;;;;10296685;28;20255;-75
2023/11/24 15:15:58;;;;;;;5.50;4.93;;;7.80;99.90;;;;;;10303362;28;20574;-76
2023/11/24 15:21:01;;;;;;;4.10;3.70;;;7.80;99.90;;;;;;10312599;28;20605;-76
2023/11/24 15:26:05;;;;;;;4.07;3.70;;;7.70;99.90;;;;;;10320088;28;20319;-75
2023/11/24 15:31:07;;;;;;;4.33;4.03;;;7.50;99.90;;;;;;10318740;28;20192;-75
2023/11/24 15:36:15;;;;;;;5.50;4.03;;;7.30;99.90;;;;;;10312976;28;20220;-76
2023/11/24 15:41:29;;;;;;;5.73;4.57;;;7.20;99.90;;;;;;10299181;28;20215;-76
2023/11/24 15:46:33;;;;;;;3.37;3.07;;;7.10;99.90;;;;;;10310819;28;20259;-76
2023/11/24 15:51:39;;;;;;;3.50;3.30;;;7.00;99.90;;;;;;10310652;28;20638;-75
2023/11/24 15:56:43;;;;;;;3.53;3.23;;;6.90;99.90;;;;;;10309990;28;20843;-76
2023/11/24 16:01:46;;;;;;;3.10;3.00;;;6.70;99.90;;;;;;10317577;28;20222;-76
2023/11/24 16:06:54;;;;;;;3.50;3.20;;;6.60;99.90;;;;;;10311691;28;20192;-76
2023/11/24 16:12:00;;;;;;;3.30;3.03;;;6.50;99.90;;;;;;10305408;28;20644;-75
2023/11/24 16:17:04;;;;;;;3.43;3.13;;;6.50;99.90;;;;;;10307665;28;20300;-76
2023/11/24 16:22:09;;;;;;;3.37;2.80;;;6.40;99.90;;;;;;10293480;28;20231;-76
2023/11/24 16:27:11;;;;;;;2.13;2.00;;;6.40;99.90;;;;;;10316175;28;20192;-76
2023/11/24 16:32:13;;;;;;;4.13;1.93;;;6.30;99.90;;;;;;10324404;28;20222;-76
2023/11/24 16:37:17;;;;;;;2.80;2.60;;;6.40;99.90;;;;;;10310944;28;20208;-76
2023/11/24 16:42:20;;;;;;;2.60;2.50;;;6.30;99.90;;;;;;10319834;28;20222;-75
2023/11/24 16:47:22;;;;;;;3.53;2.40;;;6.30;99.90;;;;;;10294271;28;20234;-75
2023/11/24 16:52:26;;;;;;;3.07;2.87;;;6.30;99.90;;;;;;10297442;28;20223;-76
2023/11/24 16:57:31;;;;;;;2.40;2.30;;;6.40;99.90;;;;;;10312545;28;20231;-76
2023/11/24 17:02:34;;;;;;;4.97;2.60;;;6.40;99.90;;;;;;10319511;28;20227;-76
2023/11/24 17:07:38;;;;;;;4.07;2.47;;;6.40;99.90;;;;;;10297746;28;20200;-76
2023/11/24 17:12:41;;;;;;;3.60;3.30;;;6.40;99.90;;;;;;10314587;28;20286;-76
2023/11/24 17:17:46;;;;;;;3.73;3.13;;;6.40;99.90;;;;;;10300176;28;20227;-75
2023/11/24 17:22:50;;;;;;;3.53;3.23;;;6.30;99.90;;;;;;10323718;28;20653;-77
2023/11/24 17:27:52;;;;;;;4.77;2.93;;;6.30;99.90;;;;;;10308866;28;20574;-76
2023/11/24 17:32:55;;;;;;;3.40;3.20;;;6.30;99.90;;;;;;10304290;28;20216;-76
2023/11/24 17:37:58;;;;;;;3.30;3.10;;;6.30;99.90;;;;;;10305102;28;20215;-75
2023/11/24 17:43:01;;;;;;;3.77;2.80;;;6.30;99.90;;;;;;10303899;28;20231;-77
2023/11/24 17:48:08;;;;;;;2.90;2.70;;;6.30;99.90;;;;;;10311875;28;20207;-75
2023/11/24 17:53:11;;;;;;;3.20;3.00;;;6.40;99.90;;;;;;10297669;28;20235;-76
2023/11/24 17:58:14;;;;;;;8.63;3.47;;;6.40;99.90;;;;;;10302471;28;20215;-76
2023/11/24 18:03:16;;;;;;;6.13;3.87;;;6.40;99.90;;;;;;10302106;28;20224;-76
2023/11/24 18:08:21;;;;;;;4.20;3.90;;;6.40;99.90;;;;;;10301068;28;20204;-76
2023/11/24 18:13:24;;;;;;;3.23;2.93;;;6.40;99.90;;;;;;10301035;28;20228;-76
2023/11/24 18:18:26;;;;;;;5.87;5.27;;;6.40;99.90;;;;;;10300589;28;20227;-77
2023/11/24 18:23:31;;;;;;;3.63;3.10;;;6.40;99.90;;;;;;10304123;28;20228;-77
2023/11/24 18:28:34;;;;;;;3.40;3.10;;;6.40;99.90;;;;;;10299135;28;20204;-77
2023/11/24 18:33:36;;;;;;;4.30;3.87;;;6.40;99.90;;;;;;10280949;28;20220;-77
2023/11/24 18:38:40;;;;;;;5.20;4.80;;;6.40;99.90;;;;;;10298404;28;20267;-77
2023/11/24 18:43:43;;;;;;;4.63;2.83;;;6.50;99.90;;;;;;10278264;28;20582;-77
2023/11/24 18:48:45;;;;;;;3.67;3.33;;;6.50;99.90;;;;;;10298372;28;20204;-77
2023/11/24 18:53:49;;;;;;;4.43;3.70;;;6.50;99.90;;;;;;10302814;28;20246;-78
2023/11/24 18:58:51;;;;;;;3.60;3.40;;;6.50;99.90;;;;;;10300721;28;20270;-77
2023/11/24 19:03:53;;;;;;;4.50;3.67;;;6.50;99.90;;;;;;10285228;28;20501;-77
2023/11/24 19:08:57;;;;;;;3.40;3.10;;;6.50;99.90;;;;;;10302572;28;20668;-77
2023/11/24 19:13:59;;;;;;;4.87;3.20;;;6.50;99.90;;;;;;10302005;28;20657;-77
2023/11/24 19:19:03;;;;;;;6.07;3.27;;;6.50;99.90;;;;;;10310234;28;20237;-77
2023/11/24 19:24:08;;;;;;;5.40;3.63;;;6.50;99.90;;;;;;10306860;28;20235;-77
2023/11/24 19:29:10;;;;;;;12.03;7.40;;;6.50;99.90;;;;;;10298288;28;20196;-77
2023/11/24 19:34:16;;;;;;;7.47;5.70;;;6.50;99.90;;;;;;10297868;28;20223;-77
2023/11/24 19:39:20;;;;;;;6.30;5.43;;;6.40;99.90;;;;;;10297746;28;20223;-77
2023/11/24 19:44:23;;;;;;;7.27;4.60;;;6.40;99.90;;;;;;10324978;23;20345;-79
2023/11/24 19:49:25;;;;;;;5.97;2.90;;;6.30;99.90;;;;;;10300925;28;20207;-77
2023/11/24 19:54:29;;;;;;;9.53;6.40;;;6.30;99.90;;;;;;10299585;28;20223;-77
2023/11/24 19:59:31;;;;;;;4.87;3.53;;;6.30;99.90;;;;;;10293745;28;20220;-79
2023/11/24 20:04:34;;;;;;;4.97;3.70;;;6.30;99.90;;;;;;10272121;28;20228;-78
2023/11/24 20:09:39;;;;;;;4.13;3.50;;;6.30;99.90;;;;;;10295013;28;20196;-79
2023/11/24 20:14:43;;;;;;;5.80;3.70;;;6.30;99.90;;;;;;10292155;28;20276;-79
2023/11/24 20:19:45;;;;;;;4.67;3.50;;;6.40;99.90;;;;;;10296923;28;20246;-79
2023/11/24 20:24:49;;;;;;;8.63;3.83;;;6.40;99.90;;;;;;10273886;28;20230;-78
2023/11/24 20:29:51;;;;;;;4.50;3.50;;;6.50;99.90;;;;;;10293632;28;20220;-78
2023/11/24 20:34:54;;;;;;;6.23;4.70;;;6.50;99.90;;;;;;10314048;28;20220;-78
2023/11/24 20:40:00;;;;;;;5.37;3.40;;;6.50;99.90;;;;;;10284745;28;20255;-78
2023/11/24 20:45:03;;;;;;;4.73;3.20;;;6.50;99.90;;;;;;10296597;28;20223;-78
2023/11/24 20:50:06;;;;;;;4.47;3.20;;;6.50;99.90;;;;;;10298735;28;20258;-77
2023/11/24 20:55:12;;;;;;;4.43;3.97;;;6.50;99.90;;;;;;10294793;28;20228;-78
2023/11/24 21:00:18;;;;;;;2.77;2.40;;;6.50;99.90;;;;;;10296215;28;20231;-78
2023/11/24 21:05:20;;;;;;;4.57;2.50;;;6.50;99.90;;;;;;10295888;28;20688;-77
2023/11/24 21:10:26;;;;;;;3.10;2.23;;;6.60;99.90;;;;;;10312465;28;20192;-77
2023/11/24 21:15:28;;;;;;;4.93;3.07;;;6.60;99.90;;;;;;10317068;28;20233;-78
2023/11/24 21:20:31;;;;;;;3.70;2.70;;;6.60;99.90;;;;;;10310020;28;20689;-78
2023/11/24 21:25:36;;;;;;;4.33;2.83;;;6.60;99.90;;;;;;10292559;28;20214;-77
2023/11/24 21:30:38;;;;;;;5.70;5.30;;;6.60;99.90;;;;;;10290852;28;20687;-78
2023/11/24 21:35:40;;;;;;;3.67;2.53;;;6.40;99.90;;;;;;10308684;28;20223;-78
2023/11/24 21:40:44;;;;;;;3.63;2.63;;;6.30;99.90;;;;;;10314801;28;20735;-78
2023/11/24 21:45:47;;;;;;;4.17;3.87;;;6.40;99.90;;;;;;10308220;28;20295;-77
2023/11/24 21:50:52;;;;;;;5.23;2.70;;;6.40;99.90;;;;;;10300243;28;20207;-78
2023/11/24 21:55:55;;;;;;;4.30;3.40;;;6.40;99.90;;;;;;10316220;28;20254;-77
2023/11/24 22:00:58;;;;;;;3.50;2.60;;;6.40;99.90;;;;;;10331017;28;20207;-76
2023/11/24 22:06:00;;;;;;;3.63;2.53;;;6.40;99.90;;;;;;10324440;28;20239;-76
2023/11/24 22:11:04;;;;;;;4.73;2.60;;;6.40;99.90;;;;;;10327819;28;20329;-77
2023/11/24 22:16:07;;;;;;;7.00;4.20;;;6.40;99.90;;;;;;10302141;28;20234;-77
2023/11/24 22:21:10;;;;;;;4.57;2.30;;;6.30;99.90;;;;;;10334363;28;20222;-78
2023/11/24 22:26:16;;;;;;;7.93;5.10;;;6.20;99.90;;;;;;10307314;28;20293;-78
2023/11/24 22:31:19;;;;;;;13.07;11.90;;;6.10;99.90;;;;;;10327224;28;20207;-79
2023/11/24 22:36:22;;;;;;;8.23;7.43;;;6.20;99.90;;;;;;10312735;28;20270;-78
2023/11/24 22:41:26;;;;;;;7.00;6.30;;;6.20;99.90;;;;;;10326116;28;20214;-78
2023/11/24 22:46:28;;;;;;;4.80;2.30;;;6.20;99.90;;;;;;10305302;28;20231;-78
2023/11/24 22:51:31;;;;;;;3.13;2.93;;;6.30;99.90;;;;;;10330709;28;20207;-78
2023/11/24 22:56:35;;;;;;;2.47;2.23;;;6.20;99.90;;;;;;10324131;28;20282;-78
2023/11/24 23:01:37;;;;;;;3.43;2.90;;;6.20;99.90;;;;;;10320263;28;20199;-78
2023/11/24 23:06:39;;;;;;;2.93;2.63;;;6.30;99.90;;;;;;10324705;28;20219;-78
2023/11/24 23:11:43;;;;;;;6.53;2.90;;;6.30;99.90;;;;;;10329333;28;20195;-78
2023/11/24 23:16:45;;;;;;;4.07;3.10;;;6.30;99.90;;;;;;10332907;28;20266;-78
2023/11/24 23:21:48;;;;;;;4.23;2.53;;;6.30;99.90;;;;;;10314067;28;20204;-79
2023/11/24 23:26:52;;;;;;;6.80;2.57;;;6.40;99.90;;;;;;10310342;28;20657;-79
2023/11/24 23:31:54;;;;;;;4.30;2.30;;;6.40;99.90;;;;;;10332416;28;20265;-78
2023/11/24 23:36:57;;;;;;;5.97;3.60;;;6.40;99.90;;;;;;10313558;28;20230;-78
2023/11/24 23:42:01;;;;;;;5.23;3.40;;;6.30;99.90;;;;;;10310685;28;20207;-78
2023/11/24 23:47:03;;;;;;;3.30;2.50;;;6.20;99.90;;;;;;10319651;28;20712;-78
2023/11/24 23:52:06;;;;;;;6.67;2.80;;;6.10;99.90;;;;;;10321836;28;20203;-78
2023/11/24 23:57:10;;;;;;;3.73;3.43;;;6.00;99.90;;;;;;10322199;28;20758;-78
